sensor_id;sensor_type;location;lat;lon;timestamp;P1;durP1;ratioP1;P2;durP2;ratioP2
39882;SDS011;55824;52.220;21.040;2023-08-17T00:02:15;5.28;;;3.90;;
39882;SDS011;55824;52.220;21.040;2023-08-17T00:04:41;6.03;;;4.80;;
39882;SDS011;55824;52.220;21.040;2023-08-17T00:07:07;6.05;;;4.70;;
39882;SDS011;55824;52.220;21.040;2023-08-17T00:09:33;6.60;;;5.03;;
39882;SDS011;55824;52.220;21.040;2023-08-17T00:11:59;6.22;;;4.60;;
39882;SDS011;55824;52.220;21.040;2023-08-17T00:14:25;6.20;;;5.10;;
39882;SDS011;55824;52.220;21.040;2023-08-17T00:16:51;5.47;;;4.30;;
39882;SDS011;55824;52.220;21.040;2023-08-17T00:19:17;5.85;;;4.82;;
39882;SDS011;55824;52.220;21.040;2023-08-17T00:21:44;5.53;;;4.35;;
39882;SDS011;55824;52.220;21.040;2023-08-17T00:24:10;5.30;;;4.25;;
39882;SDS011;55824;52.220;21.040;2023-08-17T00:26:36;5.75;;;5.00;;
39882;SDS011;55824;52.220;21.040;2023-08-17T00:29:03;5.20;;;4.25;;
39882;SDS011;55824;52.220;21.040;2023-08-17T00:31:29;5.60;;;4.80;;
39882;SDS011;55824;52.220;21.040;2023-08-17T00:33:55;6.03;;;4.68;;
39882;SDS011;55824;52.220;21.040;2023-08-17T00:36:21;6.93;;;5.53;;
39882;SDS011;55824;52.220;21.040;2023-08-17T00:38:47;6.10;;;4.97;;
39882;SDS011;55824;52.220;21.040;2023-08-17T00:41:12;4.88;;;4.25;;
39882;SDS011;55824;52.220;21.040;2023-08-17T00:43:38;5.30;;;4.40;;
39882;SDS011;55824;52.220;21.040;2023-08-17T00:46:04;5.05;;;4.38;;
39882;SDS011;55824;52.220;21.040;2023-08-17T00:48:30;6.47;;;4.88;;
39882;SDS011;55824;52.220;21.040;2023-08-17T00:50:57;5.85;;;4.68;;
39882;SDS011;55824;52.220;21.040;2023-08-17T00:58:35;5.47;;;4.25;;
39882;SDS011;55824;52.220;21.040;2023-08-17T01:01:01;5.45;;;4.43;;
39882;SDS011;55824;52.220;21.040;2023-08-17T01:03:28;4.53;;;3.92;;
39882;SDS011;55824;52.220;21.040;2023-08-17T01:05:55;6.40;;;4.15;;
39882;SDS011;55824;52.220;21.040;2023-08-17T01:08:21;5.13;;;4.22;;
39882;SDS011;55824;52.220;21.040;2023-08-17T01:11:13;4.90;;;4.18;;
39882;SDS011;55824;52.220;21.040;2023-08-17T01:16:12;5.40;;;4.63;;
39882;SDS011;55824;52.220;21.040;2023-08-17T01:18:40;7.65;;;4.93;;
39882;SDS011;55824;52.220;21.040;2023-08-17T01:21:08;5.68;;;4.68;;
39882;SDS011;55824;52.220;21.040;2023-08-17T01:23:35;6.70;;;5.80;;
39882;SDS011;55824;52.220;21.040;2023-08-17T01:26:01;5.78;;;4.55;;
39882;SDS011;55824;52.220;21.040;2023-08-17T01:28:27;5.50;;;4.22;;
39882;SDS011;55824;52.220;21.040;2023-08-17T01:33:31;5.10;;;4.53;;
39882;SDS011;55824;52.220;21.040;2023-08-17T01:36:07;6.05;;;4.13;;
39882;SDS011;55824;52.220;21.040;2023-08-17T01:38:36;5.00;;;3.92;;
39882;SDS011;55824;52.220;21.040;2023-08-17T01:41:03;6.13;;;4.60;;
39882;SDS011;55824;52.220;21.040;2023-08-17T01:43:30;5.68;;;4.68;;
39882;SDS011;55824;52.220;21.040;2023-08-17T01:45:56;5.03;;;4.40;;
39882;SDS011;55824;52.220;21.040;2023-08-17T01:48:22;5.85;;;4.72;;
39882;SDS011;55824;52.220;21.040;2023-08-17T01:50:48;5.82;;;4.90;;
39882;SDS011;55824;52.220;21.040;2023-08-17T01:53:14;6.43;;;5.40;;
39882;SDS011;55824;52.220;21.040;2023-08-17T01:55:39;6.10;;;5.25;;
39882;SDS011;55824;52.220;21.040;2023-08-17T01:58:06;9.10;;;5.82;;
39882;SDS011;55824;52.220;21.040;2023-08-17T02:00:31;5.18;;;4.32;;
39882;SDS011;55824;52.220;21.040;2023-08-17T02:02:57;5.22;;;4.25;;
39882;SDS011;55824;52.220;21.040;2023-08-17T02:05:23;6.00;;;4.88;;
39882;SDS011;55824;52.220;21.040;2023-08-17T02:07:50;6.78;;;5.32;;
39882;SDS011;55824;52.220;21.040;2023-08-17T02:10:16;6.22;;;5.47;;
39882;SDS011;55824;52.220;21.040;2023-08-17T02:12:42;6.03;;;5.28;;
39882;SDS011;55824;52.220;21.040;2023-08-17T02:15:08;6.97;;;5.75;;
39882;SDS011;55824;52.220;21.040;2023-08-17T02:17:34;6.22;;;4.97;;
39882;SDS011;55824;52.220;21.040;2023-08-17T02:20:00;6.10;;;5.32;;
39882;SDS011;55824;52.220;21.040;2023-08-17T02:22:26;6.60;;;4.78;;
39882;SDS011;55824;52.220;21.040;2023-08-17T02:24:52;6.57;;;5.40;;
39882;SDS011;55824;52.220;21.040;2023-08-17T02:27:18;6.50;;;5.18;;
39882;SDS011;55824;52.220;21.040;2023-08-17T02:29:44;5.07;;;4.55;;
39882;SDS011;55824;52.220;21.040;2023-08-17T02:32:10;7.15;;;6.18;;
39882;SDS011;55824;52.220;21.040;2023-08-17T02:34:36;5.03;;;4.53;;
39882;SDS011;55824;52.220;21.040;2023-08-17T02:37:02;6.07;;;4.85;;
39882;SDS011;55824;52.220;21.040;2023-08-17T02:39:28;4.88;;;4.38;;
39882;SDS011;55824;52.220;21.040;2023-08-17T02:41:54;7.70;;;5.32;;
39882;SDS011;55824;52.220;21.040;2023-08-17T02:44:20;6.70;;;4.75;;
39882;SDS011;55824;52.220;21.040;2023-08-17T02:46:46;5.90;;;4.85;;
39882;SDS011;55824;52.220;21.040;2023-08-17T02:49:12;7.13;;;4.95;;
39882;SDS011;55824;52.220;21.040;2023-08-17T02:51:38;5.88;;;5.18;;
39882;SDS011;55824;52.220;21.040;2023-08-17T02:54:04;7.40;;;6.00;;
39882;SDS011;55824;52.220;21.040;2023-08-17T02:56:30;5.80;;;4.50;;
39882;SDS011;55824;52.220;21.040;2023-08-17T02:58:56;6.10;;;4.93;;
39882;SDS011;55824;52.220;21.040;2023-08-17T03:01:22;6.80;;;5.97;;
39882;SDS011;55824;52.220;21.040;2023-08-17T03:03:48;5.50;;;4.40;;
39882;SDS011;55824;52.220;21.040;2023-08-17T03:06:14;4.60;;;4.13;;
39882;SDS011;55824;52.220;21.040;2023-08-17T03:08:40;5.43;;;4.63;;
39882;SDS011;55824;52.220;21.040;2023-08-17T03:11:06;6.60;;;5.47;;
39882;SDS011;55824;52.220;21.040;2023-08-17T03:13:34;6.45;;;5.30;;
39882;SDS011;55824;52.220;21.040;2023-08-17T03:16:00;6.82;;;5.05;;
39882;SDS011;55824;52.220;21.040;2023-08-17T03:18:26;5.88;;;4.88;;
39882;SDS011;55824;52.220;21.040;2023-08-17T03:20:52;5.50;;;4.68;;
39882;SDS011;55824;52.220;21.040;2023-08-17T03:23:18;6.25;;;4.82;;
39882;SDS011;55824;52.220;21.040;2023-08-17T03:25:44;5.45;;;4.38;;
39882;SDS011;55824;52.220;21.040;2023-08-17T03:28:10;5.85;;;4.55;;
39882;SDS011;55824;52.220;21.040;2023-08-17T03:30:36;4.95;;;4.20;;
39882;SDS011;55824;52.220;21.040;2023-08-17T03:33:02;5.25;;;4.45;;
39882;SDS011;55824;52.220;21.040;2023-08-17T03:35:28;5.60;;;5.00;;
39882;SDS011;55824;52.220;21.040;2023-08-17T03:37:54;6.55;;;5.20;;
39882;SDS011;55824;52.220;21.040;2023-08-17T03:40:20;6.40;;;4.80;;
39882;SDS011;55824;52.220;21.040;2023-08-17T03:42:46;6.30;;;5.13;;
39882;SDS011;55824;52.220;21.040;2023-08-17T03:45:12;5.88;;;5.28;;
39882;SDS011;55824;52.220;21.040;2023-08-17T03:47:38;7.85;;;5.88;;
39882;SDS011;55824;52.220;21.040;2023-08-17T03:50:04;7.68;;;5.32;;
39882;SDS011;55824;52.220;21.040;2023-08-17T03:52:30;7.35;;;6.32;;
39882;SDS011;55824;52.220;21.040;2023-08-17T03:54:56;5.80;;;5.20;;
39882;SDS011;55824;52.220;21.040;2023-08-17T03:57:22;6.65;;;5.50;;
39882;SDS011;55824;52.220;21.040;2023-08-17T03:59:48;8.00;;;5.35;;
39882;SDS011;55824;52.220;21.040;2023-08-17T04:02:14;5.60;;;4.93;;
39882;SDS011;55824;52.220;21.040;2023-08-17T04:04:40;5.85;;;4.65;;
39882;SDS011;55824;52.220;21.040;2023-08-17T04:07:07;5.85;;;4.55;;
39882;SDS011;55824;52.220;21.040;2023-08-17T04:09:33;6.00;;;5.10;;
39882;SDS011;55824;52.220;21.040;2023-08-17T04:11:59;6.70;;;5.00;;
39882;SDS011;55824;52.220;21.040;2023-08-17T04:14:25;6.32;;;5.03;;
39882;SDS011;55824;52.220;21.040;2023-08-17T04:16:51;7.18;;;4.75;;
39882;SDS011;55824;52.220;21.040;2023-08-17T04:19:17;5.95;;;4.47;;
39882;SDS011;55824;52.220;21.040;2023-08-17T04:21:43;7.55;;;5.05;;
39882;SDS011;55824;52.220;21.040;2023-08-17T04:24:09;5.10;;;4.60;;
39882;SDS011;55824;52.220;21.040;2023-08-17T04:26:35;5.80;;;5.20;;
39882;SDS011;55824;52.220;21.040;2023-08-17T04:29:01;7.30;;;5.57;;
39882;SDS011;55824;52.220;21.040;2023-08-17T04:31:27;6.38;;;5.15;;
39882;SDS011;55824;52.220;21.040;2023-08-17T04:33:53;6.25;;;5.43;;
39882;SDS011;55824;52.220;21.040;2023-08-17T04:36:19;5.20;;;4.28;;
39882;SDS011;55824;52.220;21.040;2023-08-17T04:38:45;6.35;;;5.07;;
39882;SDS011;55824;52.220;21.040;2023-08-17T04:41:11;8.43;;;4.97;;
39882;SDS011;55824;52.220;21.040;2023-08-17T04:43:37;5.13;;;4.47;;
39882;SDS011;55824;52.220;21.040;2023-08-17T04:46:03;6.55;;;5.68;;
39882;SDS011;55824;52.220;21.040;2023-08-17T04:48:29;8.40;;;5.00;;
39882;SDS011;55824;52.220;21.040;2023-08-17T04:50:55;6.18;;;5.20;;
39882;SDS011;55824;52.220;21.040;2023-08-17T04:53:21;6.95;;;5.00;;
39882;SDS011;55824;52.220;21.040;2023-08-17T04:55:47;6.75;;;4.30;;
39882;SDS011;55824;52.220;21.040;2023-08-17T04:58:13;7.30;;;5.22;;
39882;SDS011;55824;52.220;21.040;2023-08-17T05:00:39;8.27;;;5.70;;
39882;SDS011;55824;52.220;21.040;2023-08-17T05:03:05;4.75;;;3.95;;
39882;SDS011;55824;52.220;21.040;2023-08-17T05:05:31;6.57;;;5.35;;
39882;SDS011;55824;52.220;21.040;2023-08-17T05:07:57;6.60;;;4.88;;
39882;SDS011;55824;52.220;21.040;2023-08-17T05:10:23;5.35;;;4.25;;
39882;SDS011;55824;52.220;21.040;2023-08-17T05:12:49;5.85;;;4.60;;
39882;SDS011;55824;52.220;21.040;2023-08-17T05:15:15;5.85;;;4.72;;
39882;SDS011;55824;52.220;21.040;2023-08-17T05:17:41;5.72;;;4.65;;
39882;SDS011;55824;52.220;21.040;2023-08-17T05:20:07;7.00;;;5.30;;
39882;SDS011;55824;52.220;21.040;2023-08-17T05:22:33;5.40;;;4.43;;
39882;SDS011;55824;52.220;21.040;2023-08-17T05:24:59;5.95;;;5.07;;
39882;SDS011;55824;52.220;21.040;2023-08-17T05:27:25;8.25;;;5.03;;
39882;SDS011;55824;52.220;21.040;2023-08-17T05:29:51;5.45;;;4.47;;
39882;SDS011;55824;52.220;21.040;2023-08-17T05:32:17;6.70;;;4.63;;
39882;SDS011;55824;52.220;21.040;2023-08-17T05:34:43;5.43;;;4.50;;
39882;SDS011;55824;52.220;21.040;2023-08-17T05:37:09;5.55;;;4.15;;
39882;SDS011;55824;52.220;21.040;2023-08-17T05:39:35;5.43;;;4.38;;
39882;SDS011;55824;52.220;21.040;2023-08-17T05:42:01;4.78;;;3.80;;
39882;SDS011;55824;52.220;21.040;2023-08-17T05:44:27;5.13;;;4.60;;
39882;SDS011;55824;52.220;21.040;2023-08-17T05:46:53;6.30;;;4.82;;
39882;SDS011;55824;52.220;21.040;2023-08-17T05:49:19;5.68;;;4.75;;
39882;SDS011;55824;52.220;21.040;2023-08-17T05:51:45;5.03;;;4.32;;
39882;SDS011;55824;52.220;21.040;2023-08-17T05:54:12;4.60;;;4.18;;
39882;SDS011;55824;52.220;21.040;2023-08-17T05:56:38;5.22;;;4.68;;
39882;SDS011;55824;52.220;21.040;2023-08-17T05:59:09;5.30;;;4.70;;
39882;SDS011;55824;52.220;21.040;2023-08-17T06:01:35;4.82;;;4.05;;
39882;SDS011;55824;52.220;21.040;2023-08-17T06:04:01;5.65;;;4.20;;
39882;SDS011;55824;52.220;21.040;2023-08-17T06:06:27;6.22;;;5.10;;
39882;SDS011;55824;52.220;21.040;2023-08-17T06:08:54;5.70;;;4.00;;
39882;SDS011;55824;52.220;21.040;2023-08-17T06:11:20;6.07;;;5.40;;
39882;SDS011;55824;52.220;21.040;2023-08-17T06:13:46;6.22;;;4.70;;
39882;SDS011;55824;52.220;21.040;2023-08-17T06:16:12;7.53;;;4.63;;
39882;SDS011;55824;52.220;21.040;2023-08-17T06:18:38;5.38;;;4.68;;
39882;SDS011;55824;52.220;21.040;2023-08-17T06:21:04;5.20;;;4.65;;
39882;SDS011;55824;52.220;21.040;2023-08-17T06:23:30;6.72;;;4.85;;
39882;SDS011;55824;52.220;21.040;2023-08-17T06:25:59;6.43;;;4.57;;
39882;SDS011;55824;52.220;21.040;2023-08-17T06:28:25;5.80;;;4.80;;
39882;SDS011;55824;52.220;21.040;2023-08-17T06:30:52;5.13;;;4.22;;
39882;SDS011;55824;52.220;21.040;2023-08-17T06:33:18;5.93;;;4.60;;
39882;SDS011;55824;52.220;21.040;2023-08-17T06:35:44;5.28;;;4.38;;
39882;SDS011;55824;52.220;21.040;2023-08-17T06:38:10;5.18;;;4.35;;
39882;SDS011;55824;52.220;21.040;2023-08-17T06:40:37;6.43;;;4.50;;
39882;SDS011;55824;52.220;21.040;2023-08-17T06:43:03;4.82;;;4.22;;
39882;SDS011;55824;52.220;21.040;2023-08-17T06:45:30;5.65;;;4.50;;
39882;SDS011;55824;52.220;21.040;2023-08-17T06:47:57;5.25;;;4.60;;
39882;SDS011;55824;52.220;21.040;2023-08-17T06:50:23;5.15;;;4.20;;
39882;SDS011;55824;52.220;21.040;2023-08-17T06:52:49;5.03;;;4.10;;
39882;SDS011;55824;52.220;21.040;2023-08-17T06:55:15;6.40;;;4.85;;
39882;SDS011;55824;52.220;21.040;2023-08-17T06:57:41;5.00;;;4.40;;
39882;SDS011;55824;52.220;21.040;2023-08-17T07:00:08;5.38;;;4.53;;
39882;SDS011;55824;52.220;21.040;2023-08-17T07:02:36;4.40;;;3.72;;
39882;SDS011;55824;52.220;21.040;2023-08-17T07:05:02;5.40;;;4.13;;
39882;SDS011;55824;52.220;21.040;2023-08-17T07:07:29;5.05;;;4.35;;
39882;SDS011;55824;52.220;21.040;2023-08-17T07:09:56;5.65;;;4.07;;
39882;SDS011;55824;52.220;21.040;2023-08-17T07:12:22;5.75;;;4.78;;
39882;SDS011;55824;52.220;21.040;2023-08-17T07:14:49;4.93;;;3.97;;
39882;SDS011;55824;52.220;21.040;2023-08-17T07:17:15;6.25;;;5.15;;
39882;SDS011;55824;52.220;21.040;2023-08-17T07:19:41;5.15;;;4.10;;
39882;SDS011;55824;52.220;21.040;2023-08-17T07:22:07;5.80;;;4.40;;
39882;SDS011;55824;52.220;21.040;2023-08-17T07:24:33;5.78;;;3.75;;
39882;SDS011;55824;52.220;21.040;2023-08-17T07:26:59;5.68;;;4.40;;
39882;SDS011;55824;52.220;21.040;2023-08-17T07:29:25;6.75;;;4.57;;
39882;SDS011;55824;52.220;21.040;2023-08-17T07:31:51;6.50;;;4.25;;
39882;SDS011;55824;52.220;21.040;2023-08-17T07:34:18;6.65;;;5.05;;
39882;SDS011;55824;52.220;21.040;2023-08-17T07:36:44;4.13;;;3.35;;
39882;SDS011;55824;52.220;21.040;2023-08-17T07:39:10;5.65;;;4.10;;
39882;SDS011;55824;52.220;21.040;2023-08-17T07:41:36;4.30;;;3.42;;
39882;SDS011;55824;52.220;21.040;2023-08-17T07:44:02;4.72;;;3.97;;
39882;SDS011;55824;52.220;21.040;2023-08-17T07:46:28;4.07;;;3.67;;
39882;SDS011;55824;52.220;21.040;2023-08-17T07:48:54;5.30;;;3.88;;
39882;SDS011;55824;52.220;21.040;2023-08-17T07:51:20;7.15;;;4.30;;
39882;SDS011;55824;52.220;21.040;2023-08-17T07:53:46;4.72;;;3.50;;
39882;SDS011;55824;52.220;21.040;2023-08-17T07:56:12;4.45;;;3.83;;
39882;SDS011;55824;52.220;21.040;2023-08-17T07:58:38;4.88;;;3.78;;
39882;SDS011;55824;52.220;21.040;2023-08-17T08:01:04;5.43;;;4.20;;
39882;SDS011;55824;52.220;21.040;2023-08-17T08:03:30;5.35;;;4.25;;
39882;SDS011;55824;52.220;21.040;2023-08-17T08:05:57;5.30;;;4.32;;
39882;SDS011;55824;52.220;21.040;2023-08-17T08:08:23;4.90;;;4.13;;
39882;SDS011;55824;52.220;21.040;2023-08-17T08:10:49;4.82;;;3.70;;
39882;SDS011;55824;52.220;21.040;2023-08-17T08:13:14;5.53;;;4.55;;
39882;SDS011;55824;52.220;21.040;2023-08-17T08:15:40;4.80;;;4.18;;
39882;SDS011;55824;52.220;21.040;2023-08-17T08:18:06;7.95;;;4.43;;
39882;SDS011;55824;52.220;21.040;2023-08-17T08:20:32;5.75;;;4.70;;
39882;SDS011;55824;52.220;21.040;2023-08-17T08:22:58;6.68;;;4.68;;
39882;SDS011;55824;52.220;21.040;2023-08-17T08:25:24;6.95;;;4.93;;
39882;SDS011;55824;52.220;21.040;2023-08-17T08:27:50;6.28;;;5.00;;
39882;SDS011;55824;52.220;21.040;2023-08-17T08:30:16;5.88;;;4.68;;
39882;SDS011;55824;52.220;21.040;2023-08-17T08:32:43;5.03;;;4.35;;
39882;SDS011;55824;52.220;21.040;2023-08-17T08:35:09;6.40;;;4.30;;
39882;SDS011;55824;52.220;21.040;2023-08-17T08:37:35;4.78;;;4.18;;
39882;SDS011;55824;52.220;21.040;2023-08-17T08:40:01;4.80;;;4.00;;
39882;SDS011;55824;52.220;21.040;2023-08-17T08:42:27;4.95;;;3.97;;
39882;SDS011;55824;52.220;21.040;2023-08-17T08:44:52;6.22;;;4.80;;
39882;SDS011;55824;52.220;21.040;2023-08-17T08:47:18;4.90;;;4.20;;
39882;SDS011;55824;52.220;21.040;2023-08-17T08:50:00;5.90;;;4.25;;
39882;SDS011;55824;52.220;21.040;2023-08-17T08:52:32;4.72;;;4.25;;
39882;SDS011;55824;52.220;21.040;2023-08-17T08:54:59;4.75;;;4.03;;
39882;SDS011;55824;52.220;21.040;2023-08-17T08:57:28;5.55;;;4.57;;
39882;SDS011;55824;52.220;21.040;2023-08-17T08:59:55;5.00;;;3.97;;
39882;SDS011;55824;52.220;21.040;2023-08-17T09:02:21;5.85;;;4.20;;
39882;SDS011;55824;52.220;21.040;2023-08-17T09:04:47;8.05;;;4.78;;
39882;SDS011;55824;52.220;21.040;2023-08-17T09:07:13;4.53;;;3.95;;
39882;SDS011;55824;52.220;21.040;2023-08-17T09:09:39;7.93;;;5.10;;
39882;SDS011;55824;52.220;21.040;2023-08-17T09:12:08;5.38;;;4.47;;
39882;SDS011;55824;52.220;21.040;2023-08-17T09:14:35;4.82;;;4.22;;
39882;SDS011;55824;52.220;21.040;2023-08-17T09:17:02;4.85;;;4.00;;
39882;SDS011;55824;52.220;21.040;2023-08-17T09:19:28;5.43;;;4.70;;
39882;SDS011;55824;52.220;21.040;2023-08-17T09:21:54;5.03;;;4.53;;
39882;SDS011;55824;52.220;21.040;2023-08-17T09:24:20;5.60;;;4.80;;
39882;SDS011;55824;52.220;21.040;2023-08-17T09:26:46;5.80;;;4.93;;
39882;SDS011;55824;52.220;21.040;2023-08-17T09:29:17;5.65;;;4.90;;
39882;SDS011;55824;52.220;21.040;2023-08-17T09:31:43;6.68;;;4.80;;
39882;SDS011;55824;52.220;21.040;2023-08-17T09:34:09;4.78;;;4.25;;
39882;SDS011;55824;52.220;21.040;2023-08-17T09:36:35;5.43;;;4.88;;
39882;SDS011;55824;52.220;21.040;2023-08-17T09:39:02;6.28;;;4.63;;
39882;SDS011;55824;52.220;21.040;2023-08-17T09:41:28;5.18;;;4.40;;
39882;SDS011;55824;52.220;21.040;2023-08-17T09:43:55;5.25;;;4.45;;
39882;SDS011;55824;52.220;21.040;2023-08-17T09:46:21;5.25;;;4.60;;
39882;SDS011;55824;52.220;21.040;2023-08-17T09:48:47;5.93;;;5.28;;
39882;SDS011;55824;52.220;21.040;2023-08-17T09:51:16;5.78;;;4.80;;
39882;SDS011;55824;52.220;21.040;2023-08-17T09:53:42;6.10;;;5.03;;
39882;SDS011;55824;52.220;21.040;2023-08-17T09:56:09;6.57;;;4.90;;
39882;SDS011;55824;52.220;21.040;2023-08-17T09:58:38;5.63;;;4.57;;
39882;SDS011;55824;52.220;21.040;2023-08-17T10:01:04;5.93;;;4.55;;
39882;SDS011;55824;52.220;21.040;2023-08-17T10:03:32;6.28;;;4.80;;
39882;SDS011;55824;52.220;21.040;2023-08-17T10:05:59;5.05;;;4.47;;
39882;SDS011;55824;52.220;21.040;2023-08-17T10:08:27;7.53;;;5.13;;
39882;SDS011;55824;52.220;21.040;2023-08-17T10:10:55;5.75;;;5.15;;
39882;SDS011;55824;52.220;21.040;2023-08-17T10:13:30;5.68;;;4.80;;
39882;SDS011;55824;52.220;21.040;2023-08-17T10:15:59;5.47;;;4.38;;
39882;SDS011;55824;52.220;21.040;2023-08-17T10:21:06;5.82;;;4.70;;
39882;SDS011;55824;52.220;21.040;2023-08-17T10:23:32;5.38;;;4.57;;
39882;SDS011;55824;52.220;21.040;2023-08-17T10:26:00;6.18;;;4.60;;
39882;SDS011;55824;52.220;21.040;2023-08-17T10:28:27;5.03;;;4.53;;
39882;SDS011;55824;52.220;21.040;2023-08-17T10:30:54;5.93;;;4.53;;
39882;SDS011;55824;52.220;21.040;2023-08-17T10:33:20;5.13;;;4.45;;
39882;SDS011;55824;52.220;21.040;2023-08-17T10:35:46;6.05;;;4.75;;
39882;SDS011;55824;52.220;21.040;2023-08-17T10:38:13;5.88;;;4.82;;
39882;SDS011;55824;52.220;21.040;2023-08-17T10:40:41;7.72;;;4.50;;
39882;SDS011;55824;52.220;21.040;2023-08-17T10:43:07;6.47;;;4.95;;
39882;SDS011;55824;52.220;21.040;2023-08-17T10:45:34;5.53;;;4.40;;
39882;SDS011;55824;52.220;21.040;2023-08-17T10:50:37;5.43;;;4.47;;
39882;SDS011;55824;52.220;21.040;2023-08-17T10:55:35;5.55;;;4.32;;
39882;SDS011;55824;52.220;21.040;2023-08-17T10:58:02;5.22;;;4.15;;
39882;SDS011;55824;52.220;21.040;2023-08-17T11:00:35;6.32;;;4.15;;
39882;SDS011;55824;52.220;21.040;2023-08-17T11:03:05;5.25;;;3.78;;
39882;SDS011;55824;52.220;21.040;2023-08-17T11:08:07;5.38;;;4.35;;
39882;SDS011;55824;52.220;21.040;2023-08-17T11:10:36;5.00;;;4.32;;
39882;SDS011;55824;52.220;21.040;2023-08-17T11:13:03;5.85;;;4.30;;
39882;SDS011;55824;52.220;21.040;2023-08-17T11:15:36;5.25;;;4.15;;
39882;SDS011;55824;52.220;21.040;2023-08-17T11:18:04;6.60;;;4.32;;
39882;SDS011;55824;52.220;21.040;2023-08-17T11:20:30;5.53;;;4.00;;
39882;SDS011;55824;52.220;21.040;2023-08-17T11:22:57;6.60;;;4.38;;
39882;SDS011;55824;52.220;21.040;2023-08-17T11:25:24;4.90;;;3.90;;
39882;SDS011;55824;52.220;21.040;2023-08-17T11:27:51;5.00;;;4.15;;
39882;SDS011;55824;52.220;21.040;2023-08-17T11:30:17;4.90;;;3.88;;
39882;SDS011;55824;52.220;21.040;2023-08-17T11:32:43;4.70;;;3.85;;
39882;SDS011;55824;52.220;21.040;2023-08-17T11:35:09;4.75;;;3.78;;
39882;SDS011;55824;52.220;21.040;2023-08-17T11:37:36;5.97;;;4.70;;
39882;SDS011;55824;52.220;21.040;2023-08-17T11:40:02;4.97;;;3.90;;
39882;SDS011;55824;52.220;21.040;2023-08-17T11:42:29;4.88;;;3.90;;
39882;SDS011;55824;52.220;21.040;2023-08-17T11:44:55;4.72;;;4.07;;
39882;SDS011;55824;52.220;21.040;2023-08-17T11:47:21;4.90;;;4.18;;
39882;SDS011;55824;52.220;21.040;2023-08-17T11:49:48;5.03;;;4.07;;
39882;SDS011;55824;52.220;21.040;2023-08-17T11:52:14;4.75;;;4.10;;
39882;SDS011;55824;52.220;21.040;2023-08-17T11:54:41;5.18;;;4.05;;
39882;SDS011;55824;52.220;21.040;2023-08-17T11:57:07;3.83;;;3.42;;
39882;SDS011;55824;52.220;21.040;2023-08-17T11:59:33;4.60;;;3.58;;
39882;SDS011;55824;52.220;21.040;2023-08-17T12:01:59;4.57;;;3.65;;
39882;SDS011;55824;52.220;21.040;2023-08-17T12:04:26;4.60;;;3.80;;
39882;SDS011;55824;52.220;21.040;2023-08-17T12:06:52;4.97;;;3.45;;
39882;SDS011;55824;52.220;21.040;2023-08-17T12:09:18;6.28;;;3.88;;
39882;SDS011;55824;52.220;21.040;2023-08-17T12:11:44;4.80;;;3.47;;
39882;SDS011;55824;52.220;21.040;2023-08-17T12:14:11;3.90;;;3.17;;
39882;SDS011;55824;52.220;21.040;2023-08-17T12:16:50;4.43;;;3.25;;
39882;SDS011;55824;52.220;21.040;2023-08-17T12:19:16;5.25;;;3.75;;
39882;SDS011;55824;52.220;21.040;2023-08-17T12:21:42;6.05;;;4.13;;
39882;SDS011;55824;52.220;21.040;2023-08-17T12:24:08;6.78;;;4.10;;
39882;SDS011;55824;52.220;21.040;2023-08-17T12:26:40;5.25;;;3.97;;
39882;SDS011;55824;52.220;21.040;2023-08-17T12:29:06;4.85;;;3.75;;
39882;SDS011;55824;52.220;21.040;2023-08-17T12:31:32;4.95;;;3.40;;
39882;SDS011;55824;52.220;21.040;2023-08-17T12:33:59;4.88;;;3.10;;
39882;SDS011;55824;52.220;21.040;2023-08-17T12:36:25;4.20;;;3.65;;
39882;SDS011;55824;52.220;21.040;2023-08-17T12:38:51;4.55;;;3.60;;
39882;SDS011;55824;52.220;21.040;2023-08-17T12:41:17;4.03;;;3.35;;
39882;SDS011;55824;52.220;21.040;2023-08-17T12:43:43;4.38;;;3.40;;
39882;SDS011;55824;52.220;21.040;2023-08-17T12:46:09;5.97;;;3.22;;
39882;SDS011;55824;52.220;21.040;2023-08-17T12:48:38;5.32;;;3.42;;
39882;SDS011;55824;52.220;21.040;2023-08-17T12:51:04;4.10;;;3.60;;
39882;SDS011;55824;52.220;21.040;2023-08-17T12:53:30;3.95;;;2.90;;
39882;SDS011;55824;52.220;21.040;2023-08-17T12:55:56;4.38;;;3.55;;
39882;SDS011;55824;52.220;21.040;2023-08-17T12:58:23;3.92;;;3.20;;
39882;SDS011;55824;52.220;21.040;2023-08-17T13:00:49;4.40;;;3.55;;
39882;SDS011;55824;52.220;21.040;2023-08-17T13:03:16;5.18;;;4.07;;
39882;SDS011;55824;52.220;21.040;2023-08-17T13:05:42;5.18;;;3.67;;
39882;SDS011;55824;52.220;21.040;2023-08-17T13:08:08;4.35;;;3.28;;
39882;SDS011;55824;52.220;21.040;2023-08-17T13:10:35;5.82;;;3.45;;
39882;SDS011;55824;52.220;21.040;2023-08-17T13:13:02;4.82;;;3.20;;
39882;SDS011;55824;52.220;21.040;2023-08-17T13:15:28;4.88;;;3.58;;
39882;SDS011;55824;52.220;21.040;2023-08-17T13:17:54;4.60;;;3.25;;
39882;SDS011;55824;52.220;21.040;2023-08-17T13:20:20;4.88;;;3.60;;
39882;SDS011;55824;52.220;21.040;2023-08-17T13:22:46;4.18;;;3.33;;
39882;SDS011;55824;52.220;21.040;2023-08-17T13:25:12;3.95;;;3.20;;
39882;SDS011;55824;52.220;21.040;2023-08-17T13:27:38;4.05;;;3.17;;
39882;SDS011;55824;52.220;21.040;2023-08-17T13:30:04;4.43;;;3.35;;
39882;SDS011;55824;52.220;21.040;2023-08-17T13:32:30;3.80;;;3.20;;
39882;SDS011;55824;52.220;21.040;2023-08-17T13:34:56;4.15;;;3.50;;
39882;SDS011;55824;52.220;21.040;2023-08-17T13:37:22;4.70;;;3.15;;
39882;SDS011;55824;52.220;21.040;2023-08-17T13:39:48;4.35;;;3.13;;
39882;SDS011;55824;52.220;21.040;2023-08-17T13:42:14;4.45;;;3.28;;
39882;SDS011;55824;52.220;21.040;2023-08-17T13:44:41;4.28;;;3.20;;
39882;SDS011;55824;52.220;21.040;2023-08-17T13:47:07;4.18;;;3.13;;
39882;SDS011;55824;52.220;21.040;2023-08-17T13:49:33;4.45;;;3.20;;
39882;SDS011;55824;52.220;21.040;2023-08-17T13:51:59;5.28;;;3.53;;
39882;SDS011;55824;52.220;21.040;2023-08-17T13:54:25;4.22;;;3.20;;
39882;SDS011;55824;52.220;21.040;2023-08-17T13:56:51;3.80;;;2.90;;
39882;SDS011;55824;52.220;21.040;2023-08-17T13:59:17;6.20;;;3.38;;
39882;SDS011;55824;52.220;21.040;2023-08-17T14:01:43;3.42;;;2.88;;
39882;SDS011;55824;52.220;21.040;2023-08-17T14:04:09;4.13;;;3.13;;
39882;SDS011;55824;52.220;21.040;2023-08-17T14:06:37;3.75;;;2.90;;
39882;SDS011;55824;52.220;21.040;2023-08-17T14:09:03;3.10;;;2.80;;
39882;SDS011;55824;52.220;21.040;2023-08-17T14:11:30;3.80;;;3.10;;
39882;SDS011;55824;52.220;21.040;2023-08-17T14:13:56;3.78;;;2.75;;
39882;SDS011;55824;52.220;21.040;2023-08-17T14:16:22;4.53;;;3.38;;
39882;SDS011;55824;52.220;21.040;2023-08-17T14:18:48;3.45;;;2.90;;
39882;SDS011;55824;52.220;21.040;2023-08-17T14:21:14;4.03;;;3.13;;
39882;SDS011;55824;52.220;21.040;2023-08-17T14:23:40;4.85;;;3.15;;
39882;SDS011;55824;52.220;21.040;2023-08-17T14:26:06;3.75;;;3.03;;
39882;SDS011;55824;52.220;21.040;2023-08-17T14:28:32;4.82;;;3.25;;
39882;SDS011;55824;52.220;21.040;2023-08-17T14:30:58;4.18;;;3.03;;
39882;SDS011;55824;52.220;21.040;2023-08-17T14:33:24;5.80;;;3.13;;
39882;SDS011;55824;52.220;21.040;2023-08-17T14:35:50;5.30;;;3.03;;
39882;SDS011;55824;52.220;21.040;2023-08-17T14:38:16;3.60;;;3.08;;
39882;SDS011;55824;52.220;21.040;2023-08-17T14:40:43;4.22;;;3.15;;
39882;SDS011;55824;52.220;21.040;2023-08-17T14:43:09;4.50;;;3.05;;
39882;SDS011;55824;52.220;21.040;2023-08-17T14:45:36;3.80;;;2.92;;
39882;SDS011;55824;52.220;21.040;2023-08-17T14:48:02;4.20;;;3.30;;
39882;SDS011;55824;52.220;21.040;2023-08-17T14:50:28;3.97;;;3.17;;